Impacts METAR Board INFO
IDs:

KJFK - New York/Kennedy Int, NY, US

Updated at: 1610 UTC 19 Nov 2017
Potential Impact None Slight Moderate High
Time19/04Z 19/05Z 19/06Z 19/07Z 19/08Z 19/09Z 19/10Z 19/11Z 19/12Z 19/13Z 19/14Z 19/15Z 19/16Z
VIS10 10 10 10 6 6 5 7 10 5 10 10 10
CIG110 170 180 65 30 21 19 22 21 24 44 44 47
CoverOVCOVCBKNOVCOVCOVCOVCOVCOVCOVCBKNBKNBKN
FltCatVFRVFRVFRVFRMVFRMVFRMVFRMVFRMVFRMVFRVFRVFRVFR
WX---------RA BR-RA BR-RA BR-RA-RA-RA BR------
WDir180190190180190210200200210250280280300
WSpd20 20 18 19 20 19 17 17 19 22 19 25 26
WGst26 -- -- -- -- -- -- -- 25 31 36 35 34
Raw hourly METARs
KJFK 190351Z 18020G26KT 10SM FEW080 BKN110 OVC150 13/12 A2946 RMK AO2 PK WND 18026/0343 RAE0252B30E41 SLP975 P0001 T01330122
KJFK 190451Z 19020KT 10SM FEW080 FEW110 OVC170 13/12 A2943 RMK AO2 PK WND 18027/0415 SLP965 P0001 T01330122 401391022
KJFK 190551Z 19018KT 10SM FEW080 SCT120 SCT150 BKN180 13/12 A2939 RMK AO2 SLP953 60015 T01280117 10139 20100 56042
KJFK 190651Z 18019KT 10SM BKN065 OVC080 14/12 A2935 RMK AO2 SLP939 T01390117
KJFK 190751Z 19020KT 6SM -RA BR BKN030 OVC060 13/13 A2934 RMK AO2 RAB08 SLP935 P0002 T01330128
KJFK 190851Z 21019KT 6SM -RA BR BKN021 OVC060 14/13 A2931 RMK AO2 SLP926 P0003 60005 T01390133 56027
KJFK 190951Z 20017KT 5SM -RA BR BKN019 OVC080 14/13 A2928 RMK AO2 PK WND 21026/0932 SLP916 P0009 T01390133
KJFK 191051Z 20017KT 7SM -RA BKN022 BKN060 OVC090 14/13 A2926 RMK AO2 SLP909 P0007 T01390133
KJFK 191151Z 21019G25KT 10SM -RA BKN021 OVC075 14/13 A2925 RMK AO2 SLP904 P0002 60023 70043 T01440133 10144 20128 56022
KJFK 191251Z 25022G31KT 5SM -RA BR SCT018 BKN024 OVC040 14/12 A2927 RMK AO2 PK WND 25031/1247 SLP911 P0002 T01390122
KJFK 191351Z 28019G36KT 10SM SCT037 BKN044 BKN100 BKN200 12/06 A2934 RMK AO2 PK WND 28042/1306 RAE04 PRESRR SLP934 P0000 T01170061
KJFK 191451Z 28025G35KT 10SM FEW035 BKN044 BKN100 BKN200 12/04 A2939 RMK AO2 PK WND 26035/1408 PRESRR SLP953 60002 T01170044 53049
KJFK 191551Z 30026G34KT 10SM BKN047 BKN200 12/02 A2944 RMK AO2 PK WND 29037/1518 SLP970 T01170017